AirNav   Air Wisconsin Up To $57,000 Bonus
 
 699 users online  

TN20 Seymour Air Park
Seymour, Tennessee, USA

GOING TO SEYMOUR?


FAA INFORMATION EFFECTIVE 22 APRIL 2021

Location

FAA Identifier: TN20
Lat/Long: 35-48-44.2050N 083-46-28.7100W
35-48.736750N 083-46.478500W
35.8122792,-83.7746417
(estimated)
Elevation: 1000 ft. / 305 m (estimated)
Variation: 03W (1985)
From city: 4 miles S of SEYMOUR, TN
Time zone: UTC -4 (UTC -5 during Standard Time)
Zip code: 37865

Airport Operations

Airport use: Private use. Permission required prior to landing
Activation date: 11/1989
Control tower: no
ARTCC: ATLANTA CENTER
FSS: NASHVILLE FLIGHT SERVICE STATION
Attendance: IREG
Wind indicator: yes
Segmented circle: no

Airport Communications

WX AWOS-3 at DKX (10 nm NW): 125.375 (865-579-6151)
WX ASOS at TYS (11 nm W): PHONE 865-981-4053
WX AWOS-3 at GKT (12 nm E): 126.875 (865-429-5401)

Nearby radio navigation aids

VOR radial/distance  VOR name  Freq  Var
VXVr137/8.1VOLUNTEER VORTAC116.4003W
SOTr276/35.2SNOWBIRD VORTAC108.8004W

 
NDB name  Hdg/Dist  Freq  Var  ID
JEFFERSON223/23.034604WJXT .--- -..- -

Airport Services

Runway Information

Runway 7/25

Dimensions: 2300 x 100 ft. / 701 x 30 m
Surface: turf
RUNWAY 7  RUNWAY 25
Latitude: 35-48.661833N35-48.811667N
Longitude: 083-46.692333W083-46.264667W
Elevation: 1000.0 ft.1000.0 ft.
Traffic pattern: rightleft

Airport Ownership and Management from official FAA records

Ownership: Privately-owned
Owner: LIMA WHISKEY KILO LLC
1010 BOLING ROAD
SEYMOUR, TN 37865
Phone 865-388-7578
Manager: LARRY WINTERS
1010 BOLING ROAD
SEYMOUR, TN 37865
Phone 865-388-7578
KATHY WINTERS 865-388-0309

Airport Operational Statistics

Aircraft based on the field: 36
Single engine airplanes: 30
Ultralights: 6
    

Additional Remarks

OWNER REQUEST CHARTING.
FOR CD CTC ATLANTA ARTCC AT 770-210-7692.

Instrument Procedures

There are no published instrument procedures at TN20.

Some nearby airports with instrument procedures:

KDKX - Knoxville Downtown Island Airport (10 nm NW)
KTYS - Mc Ghee Tyson Airport (11 nm W)
KGKT - Gatlinburg-Pigeon Forge Airport (12 nm E)
KMOR - Moore-Murrell Airport (29 nm NE)
KMNV - Monroe County Airport (34 nm SW)
 
Loc | Ops | Rwys | IFR | FBO | Links
Com | Nav | Svcs | Stats | Notes
Area around TN20 (Seymour Air Park)
 
Road maps at: MapQuest Bing Google
 
Aerial photo
No photo
 
Sectional chart

 
Airport distance calculator
Flying to Seymour Air Park? Find the distance to fly.

From to TN20

Sunrise and sunset
Times for 12-May-2021
 Local
(UTC-4)
 Zulu
(UTC)
Morning civil twilight06:0510:05
Sunrise06:3310:33
Sunset20:3000:30
Evening civil twilight20:5800:58

Current date and time
Zulu (UTC)  12-May-2021 04:17:31
Local (UTC-4)  12-May-2021 00:17:31
 
METAR
KTYS 
10nm W 
120353Z 01012KT 10SM BKN080 17/06 A3013 RMK AO2 SLP199 T01670056
KDKX 
10nm NW 
120350Z AUTO 00000KT 10SM OVC080 17/06 A3016 RMK A01
KGKT 
12nm E 
120355Z AUTO 00000KT 10SM OVC075 15/12 A3014 RMK A01
TAF
KTYS 
10nm W 
111727Z 1118/1218 01006KT P6SM FEW060 BKN200 FM120200 02009KT P6SM OVC070 PROB30 1207/1211 5SM -SHRA BR OVC035 FM121100 03009KT P6SM VCSH SCT020 OVC035 PROB30 1211/1216 3SM -SHRA BR OVC025
NOTAMs
Click for the latest NOTAMs
NOTAMs are issued by the DoD/FAA and will open in a separate window not controlled by AirNav.

 

 
 

Would you like to see your business listed on this page?

 If your business provides an interesting product or service to pilots, flight crews, aircraft, or users of the Seymour Air Park, you should consider listing it here.  To start the listing process, click on the button below
 
Add a business
 

Other Pages about Seymour Air Park

Update a link
 
Copyright © AirNav, LLC. All rights reserved. Privacy Policy  Contact